WZZ979 EPKK-LHBP
Flight info
| Callsign | WZZ979 |
|---|---|
| Flight time | 0h 38m |
| Altitude | 28000 |
| Route | BABKO DCT NIDOK/N0411F270 DCT EDEMU |
| Aircraft | A321/M-SDE1E2E3FGIJ1J4RWXY/LB1 |
Departure
| Time | 2026-05-07 17:58 |
|---|---|
| Airport | Kraków John Paul II International Airport (EPKK) |
Arrival
| Time | 2026-05-07 18:37 |
|---|---|
| Airport | Budapest Liszt Ferenc International Airport (LHBP) |
| Time | Latitude | Longitude | Altitude | Speed | Heading |
|---|---|---|---|---|---|
| 2026-05-07 17:37 | 50.07503 | 19.80271 | 800 ft | 0 kts | 168° |
| 2026-05-07 17:55 | 50.07497 | 19.80273 | 800 ft | 2 kts | 168° |
| 2026-05-07 17:55 | 50.07478 | 19.80280 | 800 ft | 4 kts | 168° |
| 2026-05-07 17:55 | 50.07448 | 19.80306 | 800 ft | 6 kts | 123° |
| 2026-05-07 17:56 | 50.07463 | 19.80368 | 800 ft | 8 kts | 37° |
| 2026-05-07 17:56 | 50.07522 | 19.80403 | 800 ft | 10 kts | 17° |
| 2026-05-07 17:56 | 50.07601 | 19.80418 | 800 ft | 13 kts | 351° |
| 2026-05-07 17:56 | 50.07697 | 19.80386 | 800 ft | 15 kts | 348° |
| 2026-05-07 17:57 | 50.07802 | 19.80351 | 800 ft | 9 kts | 348° |
| 2026-05-07 17:57 | 50.07826 | 19.80343 | 800 ft | 5 kts | 348° |
| 2026-05-07 17:57 | 50.07893 | 19.80321 | 800 ft | 11 kts | 348° |
| 2026-05-07 17:57 | 50.07998 | 19.80267 | 800 ft | 18 kts | 314° |
| 2026-05-07 17:58 | 50.07991 | 19.80037 | 801 ft | 43 kts | 258° |
| 2026-05-07 17:58 | 50.07871 | 19.79182 | 801 ft | 116 kts | 258° |
| 2026-05-07 17:58 | 50.07658 | 19.77651 | 828 ft | 169 kts | 257° |
| 2026-05-07 17:58 | 50.07419 | 19.75924 | 1608 ft | 159 kts | 256° |
| 2026-05-07 17:59 | 50.07182 | 19.74243 | 2301 ft | 160 kts | 258° |
| 2026-05-07 17:59 | 50.06932 | 19.72455 | 2647 ft | 179 kts | 258° |
| 2026-05-07 17:59 | 50.06651 | 19.70444 | 2919 ft | 201 kts | 258° |
| 2026-05-07 17:59 | 50.06337 | 19.68197 | 3128 ft | 224 kts | 258° |
| 2026-05-07 18:00 | 50.05851 | 19.65832 | 3713 ft | 234 kts | 238° |
| 2026-05-07 18:00 | 50.04592 | 19.64227 | 4390 ft | 247 kts | 203° |
| 2026-05-07 18:00 | 50.02824 | 19.63956 | 4914 ft | 266 kts | 176° |
| 2026-05-07 18:00 | 50.00985 | 19.64521 | 5662 ft | 273 kts | 168° |
| 2026-05-07 18:01 | 49.99144 | 19.65346 | 5951 ft | 276 kts | 166° |
| 2026-05-07 18:01 | 49.97275 | 19.65818 | 6028 ft | 271 kts | 185° |
| 2026-05-07 18:01 | 49.95459 | 19.65201 | 6037 ft | 267 kts | 201° |
| 2026-05-07 18:01 | 49.93704 | 19.64258 | 6044 ft | 267 kts | 201° |
| 2026-05-07 18:02 | 49.90165 | 19.62347 | 7328 ft | 270 kts | 201° |
| 2026-05-07 18:02 | 49.88380 | 19.61388 | 8110 ft | 273 kts | 201° |
| 2026-05-07 18:02 | 49.86575 | 19.60420 | 8890 ft | 276 kts | 201° |
| 2026-05-07 18:03 | 49.85365 | 19.59773 | 9411 ft | 278 kts | 201° |
| 2026-05-07 18:03 | 49.83523 | 19.58795 | 10144 ft | 283 kts | 201° |
| 2026-05-07 18:03 | 49.81589 | 19.57769 | 10378 ft | 306 kts | 201° |
| 2026-05-07 18:03 | 49.79505 | 19.56663 | 10629 ft | 324 kts | 200° |
| 2026-05-07 18:04 | 49.77350 | 19.55518 | 11229 ft | 330 kts | 200° |
| 2026-05-07 18:04 | 49.75168 | 19.54355 | 11953 ft | 332 kts | 200° |
| 2026-05-07 18:04 | 49.72979 | 19.53188 | 12713 ft | 334 kts | 200° |
| 2026-05-07 18:04 | 49.70781 | 19.52020 | 13467 ft | 335 kts | 200° |
| 2026-05-07 18:05 | 49.68570 | 19.50848 | 14161 ft | 337 kts | 200° |
| 2026-05-07 18:05 | 49.66344 | 19.49670 | 14807 ft | 339 kts | 199° |
| 2026-05-07 18:05 | 49.64108 | 19.48492 | 15463 ft | 341 kts | 200° |
| 2026-05-07 18:05 | 49.61852 | 19.47291 | 16114 ft | 344 kts | 202° |
| 2026-05-07 18:06 | 49.59712 | 19.45654 | 16754 ft | 345 kts | 211° |
| 2026-05-07 18:06 | 49.57629 | 19.43786 | 17403 ft | 347 kts | 211° |
| 2026-05-07 18:06 | 49.55530 | 19.41912 | 18052 ft | 350 kts | 211° |
| 2026-05-07 18:06 | 49.53418 | 19.40032 | 18663 ft | 352 kts | 211° |
| 2026-05-07 18:07 | 49.51292 | 19.38141 | 19180 ft | 354 kts | 210° |
| 2026-05-07 18:07 | 49.49151 | 19.36239 | 19722 ft | 357 kts | 210° |
| 2026-05-07 18:07 | 49.46993 | 19.34323 | 20248 ft | 360 kts | 210° |
| 2026-05-07 18:07 | 49.44813 | 19.32386 | 20788 ft | 363 kts | 209° |
| 2026-05-07 18:08 | 49.42614 | 19.30438 | 21316 ft | 366 kts | 209° |
| 2026-05-07 18:08 | 49.40398 | 19.28479 | 21862 ft | 369 kts | 208° |
| 2026-05-07 18:08 | 49.38165 | 19.26510 | 22391 ft | 372 kts | 208° |
| 2026-05-07 18:08 | 49.35911 | 19.24523 | 22909 ft | 375 kts | 208° |
| 2026-05-07 18:09 | 49.33640 | 19.22519 | 23380 ft | 378 kts | 208° |
| 2026-05-07 18:09 | 49.31353 | 19.20500 | 23809 ft | 381 kts | 208° |
| 2026-05-07 18:09 | 49.29055 | 19.18471 | 23962 ft | 381 kts | 208° |
| 2026-05-07 18:09 | 49.26761 | 19.16443 | 24003 ft | 380 kts | 208° |
| 2026-05-07 18:10 | 49.24471 | 19.14425 | 23992 ft | 379 kts | 207° |
| 2026-05-07 18:10 | 49.22187 | 19.12420 | 23998 ft | 378 kts | 207° |
| 2026-05-07 18:10 | 49.19903 | 19.10421 | 23994 ft | 378 kts | 207° |
| 2026-05-07 18:10 | 49.17618 | 19.08422 | 23993 ft | 378 kts | 207° |
| 2026-05-07 18:11 | 49.15334 | 19.06425 | 23998 ft | 378 kts | 207° |
| 2026-05-07 18:11 | 49.13005 | 19.04724 | 23994 ft | 375 kts | 196° |
| 2026-05-07 18:11 | 49.10446 | 19.04106 | 24003 ft | 374 kts | 180° |
| 2026-05-07 18:11 | 49.07879 | 19.04722 | 24003 ft | 377 kts | 163° |
| 2026-05-07 18:12 | 49.05505 | 19.06462 | 24003 ft | 381 kts | 153° |
| 2026-05-07 18:12 | 49.03167 | 19.08472 | 24002 ft | 380 kts | 153° |
| 2026-05-07 18:12 | 49.00898 | 19.10432 | 23998 ft | 380 kts | 153° |
| 2026-05-07 18:12 | 48.98597 | 19.12420 | 24002 ft | 380 kts | 153° |
| 2026-05-07 18:13 | 48.96297 | 19.14404 | 24006 ft | 380 kts | 154° |
| 2026-05-07 18:13 | 48.93997 | 19.16381 | 24004 ft | 380 kts | 154° |
| 2026-05-07 18:13 | 48.91691 | 19.18356 | 24007 ft | 380 kts | 154° |
| 2026-05-07 18:13 | 48.89388 | 19.20322 | 23982 ft | 381 kts | 154° |
| 2026-05-07 18:14 | 48.87069 | 19.22304 | 24007 ft | 383 kts | 153° |
| 2026-05-07 18:14 | 48.84743 | 19.24293 | 24013 ft | 384 kts | 154° |
| 2026-05-07 18:14 | 48.82415 | 19.26277 | 24014 ft | 384 kts | 154° |
| 2026-05-07 18:14 | 48.80082 | 19.28259 | 24014 ft | 384 kts | 154° |
| 2026-05-07 18:15 | 48.77747 | 19.30241 | 24011 ft | 384 kts | 154° |
| 2026-05-07 18:15 | 48.75420 | 19.32213 | 24010 ft | 384 kts | 154° |
| 2026-05-07 18:15 | 48.73089 | 19.34193 | 24010 ft | 384 kts | 154° |
| 2026-05-07 18:15 | 48.70764 | 19.36170 | 24015 ft | 383 kts | 154° |
| 2026-05-07 18:16 | 48.68441 | 19.38144 | 24013 ft | 383 kts | 153° |
| 2026-05-07 18:16 | 48.66112 | 19.40119 | 24018 ft | 383 kts | 154° |
| 2026-05-07 18:16 | 48.63788 | 19.42082 | 24015 ft | 383 kts | 154° |
| 2026-05-07 18:16 | 48.61459 | 19.44043 | 24017 ft | 383 kts | 154° |
| 2026-05-07 18:17 | 48.59124 | 19.46007 | 24006 ft | 387 kts | 154° |
| 2026-05-07 18:17 | 48.56762 | 19.47992 | 24018 ft | 389 kts | 154° |
| 2026-05-07 18:17 | 48.54395 | 19.49983 | 24017 ft | 390 kts | 154° |
| 2026-05-07 18:17 | 48.52026 | 19.51974 | 24015 ft | 390 kts | 154° |
| 2026-05-07 18:18 | 48.49652 | 19.53967 | 24009 ft | 390 kts | 155° |
| 2026-05-07 18:18 | 48.47282 | 19.55955 | 24012 ft | 390 kts | 155° |
| 2026-05-07 18:18 | 48.44909 | 19.57949 | 24012 ft | 390 kts | 155° |
| 2026-05-07 18:18 | 48.42537 | 19.59937 | 24011 ft | 390 kts | 155° |
| 2026-05-07 18:19 | 48.40164 | 19.61923 | 24009 ft | 390 kts | 155° |
| 2026-05-07 18:19 | 48.37789 | 19.63909 | 24008 ft | 390 kts | 155° |
| 2026-05-07 18:19 | 48.35423 | 19.65884 | 24006 ft | 385 kts | 155° |
| 2026-05-07 18:19 | 48.33021 | 19.67402 | 23934 ft | 366 kts | 169° |
| 2026-05-07 18:20 | 48.30565 | 19.67827 | 23809 ft | 349 kts | 184° |
| 2026-05-07 18:20 | 48.28168 | 19.67606 | 23449 ft | 343 kts | 186° |
| 2026-05-07 18:20 | 48.25822 | 19.67365 | 22947 ft | 342 kts | 186° |
| 2026-05-07 18:20 | 48.23429 | 19.67114 | 22468 ft | 339 kts | 186° |
| 2026-05-07 18:21 | 48.21079 | 19.66867 | 22007 ft | 337 kts | 186° |
| 2026-05-07 18:21 | 48.18747 | 19.66625 | 21555 ft | 335 kts | 186° |
| 2026-05-07 18:21 | 48.16433 | 19.66387 | 21111 ft | 333 kts | 186° |
| 2026-05-07 18:21 | 48.14127 | 19.66148 | 20663 ft | 331 kts | 186° |
| 2026-05-07 18:22 | 48.11840 | 19.65913 | 20229 ft | 329 kts | 186° |
| 2026-05-07 18:22 | 48.10333 | 19.65760 | 19944 ft | 327 kts | 186° |
| 2026-05-07 18:22 | 48.07311 | 19.65451 | 19373 ft | 324 kts | 186° |
| 2026-05-07 18:22 | 48.05066 | 19.65223 | 18945 ft | 322 kts | 186° |
| 2026-05-07 18:23 | 48.02792 | 19.64993 | 18516 ft | 320 kts | 186° |
| 2026-05-07 18:23 | 48.00615 | 19.64776 | 18084 ft | 318 kts | 186° |
| 2026-05-07 18:23 | 47.98413 | 19.64556 | 17612 ft | 316 kts | 186° |
| 2026-05-07 18:23 | 47.96223 | 19.64335 | 17165 ft | 314 kts | 186° |
| 2026-05-07 18:24 | 47.94078 | 19.64119 | 16732 ft | 312 kts | 186° |
| 2026-05-07 18:24 | 47.91914 | 19.63901 | 16281 ft | 311 kts | 186° |
| 2026-05-07 18:24 | 47.89765 | 19.63684 | 15855 ft | 309 kts | 185° |
| 2026-05-07 18:24 | 47.87602 | 19.63464 | 15432 ft | 307 kts | 185° |
| 2026-05-07 18:25 | 47.85505 | 19.63251 | 15021 ft | 305 kts | 185° |
| 2026-05-07 18:25 | 47.83393 | 19.63036 | 14607 ft | 303 kts | 185° |
| 2026-05-07 18:25 | 47.81293 | 19.62825 | 14182 ft | 302 kts | 186° |
| 2026-05-07 18:25 | 47.79203 | 19.62619 | 13782 ft | 301 kts | 186° |
| 2026-05-07 18:26 | 47.77119 | 19.62412 | 13342 ft | 299 kts | 186° |
| 2026-05-07 18:26 | 47.75054 | 19.62204 | 12900 ft | 298 kts | 186° |
| 2026-05-07 18:26 | 47.72990 | 19.61995 | 12468 ft | 296 kts | 186° |
| 2026-05-07 18:26 | 47.70937 | 19.61789 | 12038 ft | 295 kts | 186° |
| 2026-05-07 18:27 | 47.68896 | 19.61586 | 11625 ft | 294 kts | 186° |
| 2026-05-07 18:27 | 47.66864 | 19.61385 | 11213 ft | 292 kts | 186° |
| 2026-05-07 18:27 | 47.64835 | 19.61184 | 10811 ft | 291 kts | 186° |
| 2026-05-07 18:27 | 47.62819 | 19.60984 | 10405 ft | 290 kts | 186° |
| 2026-05-07 18:28 | 47.60804 | 19.60786 | 10009 ft | 289 kts | 186° |
| 2026-05-07 18:28 | 47.58830 | 19.60592 | 9842 ft | 279 kts | 186° |
| 2026-05-07 18:28 | 47.56911 | 19.60403 | 9534 ft | 275 kts | 186° |
| 2026-05-07 18:28 | 47.55011 | 19.60212 | 9187 ft | 272 kts | 186° |
| 2026-05-07 18:29 | 47.53131 | 19.60021 | 8828 ft | 270 kts | 186° |
| 2026-05-07 18:29 | 47.51263 | 19.59832 | 8463 ft | 269 kts | 186° |
| 2026-05-07 18:29 | 47.49403 | 19.59647 | 8100 ft | 267 kts | 186° |
| 2026-05-07 18:29 | 47.47551 | 19.59461 | 7742 ft | 266 kts | 186° |
| 2026-05-07 18:30 | 47.45707 | 19.59277 | 7391 ft | 265 kts | 186° |
| 2026-05-07 18:30 | 47.43877 | 19.59095 | 7047 ft | 264 kts | 186° |
| 2026-05-07 18:30 | 47.42050 | 19.58916 | 6701 ft | 262 kts | 186° |
| 2026-05-07 18:30 | 47.40237 | 19.58739 | 6441 ft | 258 kts | 186° |
| 2026-05-07 18:31 | 47.38481 | 19.58567 | 6313 ft | 248 kts | 186° |
| 2026-05-07 18:31 | 47.36795 | 19.58304 | 6128 ft | 239 kts | 195° |
| 2026-05-07 18:31 | 47.35259 | 19.57449 | 5838 ft | 235 kts | 210° |
| 2026-05-07 18:31 | 47.33955 | 19.56023 | 5519 ft | 233 kts | 223° |
| 2026-05-07 18:32 | 47.32780 | 19.54406 | 5304 ft | 227 kts | 225° |
| 2026-05-07 18:32 | 47.31870 | 19.52584 | 5171 ft | 216 kts | 242° |
| 2026-05-07 18:32 | 47.31425 | 19.50542 | 4922 ft | 206 kts | 259° |
| 2026-05-07 18:32 | 47.31424 | 19.48438 | 4382 ft | 207 kts | 277° |
| 2026-05-07 18:33 | 47.31882 | 19.46434 | 3854 ft | 208 kts | 295° |
| 2026-05-07 18:33 | 47.32754 | 19.44722 | 3311 ft | 210 kts | 309° |
| 2026-05-07 18:33 | 47.33742 | 19.43143 | 2941 ft | 209 kts | 310° |
| 2026-05-07 18:33 | 47.34729 | 19.41563 | 2666 ft | 207 kts | 310° |
| 2026-05-07 18:34 | 47.35679 | 19.40038 | 2372 ft | 196 kts | 310° |
| 2026-05-07 18:34 | 47.36568 | 19.38611 | 2099 ft | 180 kts | 311° |
| 2026-05-07 18:34 | 47.37357 | 19.37343 | 1881 ft | 157 kts | 311° |
| 2026-05-07 18:34 | 47.38067 | 19.36200 | 1674 ft | 147 kts | 311° |
| 2026-05-07 18:35 | 47.38749 | 19.35101 | 1458 ft | 144 kts | 311° |
| 2026-05-07 18:35 | 47.39421 | 19.34020 | 1286 ft | 142 kts | 311° |
| 2026-05-07 18:35 | 47.40088 | 19.32949 | 1085 ft | 142 kts | 311° |
| 2026-05-07 18:35 | 47.40758 | 19.31872 | 896 ft | 142 kts | 312° |
| 2026-05-07 18:36 | 47.41427 | 19.30801 | 774 ft | 143 kts | 313° |
| 2026-05-07 18:36 | 47.42089 | 19.29717 | 563 ft | 141 kts | 312° |
| 2026-05-07 18:36 | 47.42745 | 19.28671 | 456 ft | 129 kts | 314° |
| 2026-05-07 18:36 | 47.43261 | 19.27830 | 463 ft | 88 kts | 312° |
| 2026-05-07 18:37 | 47.43561 | 19.27346 | 472 ft | 47 kts | 313° |
| 2026-05-07 18:37 | 47.43717 | 19.27033 | 473 ft | 32 kts | 294° |
| 2026-05-07 18:37 | 47.43774 | 19.26716 | 462 ft | 25 kts | 282° |
| 2026-05-07 18:37 | 47.43794 | 19.26578 | 459 ft | 12 kts | 282° |
| 2026-05-07 18:38 | 47.43802 | 19.26456 | 458 ft | 10 kts | 240° |
| 2026-05-07 18:38 | 47.43754 | 19.26418 | 458 ft | 8 kts | 210° |
| 2026-05-07 18:38 | 47.43712 | 19.26366 | 458 ft | 8 kts | 222° |
| 2026-05-07 18:38 | 47.43664 | 19.26359 | 456 ft | 7 kts | 154° |
| 2026-05-07 18:39 | 47.43630 | 19.26407 | 458 ft | 7 kts | 133° |
| 2026-05-07 18:39 | 47.43597 | 19.26430 | 458 ft | 5 kts | 191° |
| 2026-05-07 18:39 | 47.43573 | 19.26403 | 455 ft | 4 kts | 222° |
| 2026-05-07 18:39 | 47.43564 | 19.26392 | 456 ft | 0 kts | 222° |